createdAt,value
2022-12-04T00:01:03.809Z,75.92
2022-12-04T00:03:30.978Z,75.14
2022-12-04T00:06:03.620Z,75.38
2022-12-04T00:08:31.372Z,75.85
2022-12-04T00:10:59.879Z,75.36
2022-12-04T00:13:26.692Z,75.66
2022-12-04T00:15:54.065Z,75.51
2022-12-04T00:18:20.837Z,75.20
2022-12-04T00:20:47.444Z,75.26
2022-12-04T00:23:14.687Z,75.59
2022-12-04T00:25:41.650Z,75.92
2022-12-04T00:28:10.121Z,75.51
2022-12-04T00:30:40.906Z,75.41
2022-12-04T00:33:07.504Z,76.02
2022-12-04T00:35:34.130Z,76.02
2022-12-04T00:38:00.739Z,75.34
2022-12-04T00:40:27.363Z,76.00
2022-12-04T00:42:54.026Z,75.79
2022-12-04T00:45:22.028Z,75.42
2022-12-04T00:47:48.645Z,75.37
2022-12-04T00:50:15.332Z,75.37
2022-12-04T00:52:42.012Z,75.84
2022-12-04T00:55:09.589Z,75.34
2022-12-04T00:57:36.624Z,75.69
2022-12-04T01:00:04.862Z,75.49
2022-12-04T01:02:33.183Z,75.44
2022-12-04T01:05:01.112Z,75.56
2022-12-04T01:07:27.887Z,76.04
2022-12-04T01:09:54.723Z,75.38
2022-12-04T01:12:21.525Z,75.41
2022-12-04T01:14:48.217Z,75.78
2022-12-04T01:17:14.828Z,75.88
2022-12-04T01:19:42.796Z,75.84
2022-12-04T01:22:09.407Z,75.56
2022-12-04T01:24:36.009Z,75.39
2022-12-04T01:27:02.938Z,75.65
2022-12-04T01:29:29.712Z,75.48
2022-12-04T01:31:56.359Z,75.65
2022-12-04T01:34:25.247Z,75.83
2022-12-04T01:36:53.197Z,75.58
2022-12-04T01:39:20.079Z,75.46
2022-12-04T01:41:46.700Z,75.76
2022-12-04T01:44:16.896Z,75.78
2022-12-04T01:46:46.063Z,75.52
2022-12-04T01:49:15.917Z,75.40
2022-12-04T01:51:46.115Z,75.56
2022-12-04T01:54:18.683Z,75.62
2022-12-04T01:56:48.559Z,76.01
2022-12-04T01:59:19.516Z,75.79
2022-12-04T02:01:52.608Z,75.84
2022-12-04T02:04:19.723Z,75.64
2022-12-04T02:06:46.425Z,75.47
2022-12-04T02:09:14.714Z,75.84
2022-12-04T02:11:47.285Z,75.95
2022-12-04T02:14:26.136Z,75.69
2022-12-04T02:17:02.089Z,75.52
2022-12-04T02:19:49.384Z,75.78
2022-12-04T02:22:40.229Z,75.75
2022-12-04T02:25:22.527Z,75.93
2022-12-04T02:28:02.434Z,75.93
2022-12-04T02:30:31.839Z,75.63
2022-12-04T02:33:04.241Z,75.58
2022-12-04T02:35:35.158Z,75.67
2022-12-04T02:38:07.185Z,76.08
2022-12-04T02:40:42.996Z,75.72
2022-12-04T02:43:15.015Z,75.64
2022-12-04T02:45:46.103Z,75.93
2022-12-04T02:48:16.589Z,75.59
2022-12-04T02:50:45.511Z,75.83
2022-12-04T02:53:16.213Z,75.55
2022-12-04T02:55:46.381Z,75.85
2022-12-04T02:58:20.293Z,76.15
2022-12-04T03:00:48.972Z,75.93
2022-12-04T03:03:20.419Z,75.87
2022-12-04T03:05:55.324Z,75.90
2022-12-04T03:08:28.483Z,76.02
2022-12-04T03:10:58.293Z,76.26
2022-12-04T03:13:31.759Z,75.64
2022-12-04T03:16:03.833Z,76.16
2022-12-04T03:18:35.150Z,75.99
2022-12-04T03:21:06.455Z,76.10
2022-12-04T03:23:37.531Z,75.73
2022-12-04T03:26:10.947Z,75.85
2022-12-04T03:28:51.022Z,76.33
2022-12-04T03:31:22.747Z,75.92
2022-12-04T03:33:51.065Z,75.64
2022-12-04T03:36:21.765Z,76.08
2022-12-04T03:38:55.108Z,76.31
2022-12-04T03:41:27.696Z,75.66
2022-12-04T03:44:01.521Z,75.88
2022-12-04T03:46:33.241Z,75.83
2022-12-04T03:49:06.222Z,76.24
2022-12-04T03:51:39.125Z,75.98
2022-12-04T03:54:12.201Z,75.83
2022-12-04T03:56:44.803Z,75.92
2022-12-04T03:59:20.484Z,76.42
2022-12-04T04:01:49.479Z,76.50
2022-12-04T04:04:22.040Z,76.06
2022-12-04T04:06:53.886Z,75.92
2022-12-04T04:09:24.533Z,76.24
2022-12-04T04:11:57.541Z,75.87
2022-12-04T04:14:51.233Z,76.42
2022-12-04T04:17:42.485Z,76.02
2022-12-04T04:20:33.924Z,76.27
2022-12-04T04:23:21.408Z,76.43
2022-12-04T04:25:48.148Z,75.93
2022-12-04T04:28:29.513Z,76.26
2022-12-04T04:31:05.335Z,76.59
2022-12-04T04:33:36.088Z,75.99
2022-12-04T04:36:13.666Z,76.13
2022-12-04T04:38:46.304Z,75.85
2022-12-04T04:41:19.495Z,76.34
2022-12-04T04:43:55.893Z,75.90
2022-12-04T04:46:29.838Z,75.99
2022-12-04T04:49:00.710Z,76.05
2022-12-04T04:51:28.983Z,75.72
2022-12-04T04:53:58.223Z,75.82
2022-12-04T04:56:25.377Z,75.92
2022-12-04T04:58:52.156Z,76.13
2022-12-04T05:01:21.854Z,75.97
2022-12-04T05:03:49.849Z,75.77
2022-12-04T05:06:16.494Z,75.98
2022-12-04T05:08:44.174Z,76.29
2022-12-04T05:11:13.482Z,76.30
2022-12-04T05:13:40.660Z,76.43
2022-12-04T05:16:11.007Z,76.09
2022-12-04T05:18:37.992Z,75.90
2022-12-04T05:21:07.282Z,76.38
2022-12-04T05:23:34.372Z,76.24
2022-12-04T05:26:01.588Z,76.21
2022-12-04T05:28:28.287Z,76.60
2022-12-04T05:30:56.267Z,76.03
2022-12-04T05:33:23.206Z,76.34
2022-12-04T05:35:57.177Z,76.00
2022-12-04T05:38:25.517Z,75.98
2022-12-04T05:40:52.175Z,76.51
2022-12-04T05:43:19.393Z,75.94
2022-12-04T05:45:46.366Z,76.39
2022-12-04T05:48:12.975Z,76.02
2022-12-04T05:50:39.701Z,76.48
2022-12-04T05:53:06.380Z,76.17
2022-12-04T05:55:34.418Z,76.50
2022-12-04T05:58:01.241Z,76.49
2022-12-04T06:00:28.451Z,76.48
2022-12-04T06:02:55.150Z,76.82
2022-12-04T06:05:21.767Z,76.29
2022-12-04T06:07:48.471Z,76.30
2022-12-04T06:10:15.115Z,76.16
2022-12-04T06:12:43.111Z,76.06
2022-12-04T06:15:10.749Z,76.84
2022-12-04T06:17:37.527Z,76.30
2022-12-04T06:20:10.906Z,76.26
2022-12-04T06:22:38.240Z,76.74
2022-12-04T06:25:05.471Z,76.42
2022-12-04T06:27:32.110Z,76.42
2022-12-04T06:30:00.073Z,76.45
2022-12-04T06:32:26.745Z,76.69
2022-12-04T06:34:55.064Z,76.33
2022-12-04T06:37:24.850Z,76.23
2022-12-04T06:39:51.748Z,76.65
2022-12-04T06:42:18.711Z,76.70
2022-12-04T06:44:47.913Z,76.50
2022-12-04T06:47:15.878Z,76.40
2022-12-04T06:49:42.612Z,76.51
2022-12-04T06:52:09.329Z,76.19
2022-12-04T06:54:36.307Z,76.80
2022-12-04T06:57:02.918Z,76.38
2022-12-04T06:59:30.972Z,76.33
2022-12-04T07:01:57.665Z,76.71
2022-12-04T07:04:27.320Z,76.11
2022-12-04T07:06:54.659Z,76.72
2022-12-04T07:09:21.368Z,76.81
2022-12-04T07:11:47.996Z,76.15
2022-12-04T07:14:14.996Z,76.39
2022-12-04T07:16:42.644Z,76.31
2022-12-04T07:19:09.904Z,76.42
2022-12-04T07:21:38.049Z,76.34
2022-12-04T07:24:05.090Z,76.68
2022-12-04T07:26:32.152Z,76.36
2022-12-04T07:28:59.755Z,76.46
2022-12-04T07:31:28.465Z,76.72
2022-12-04T07:33:56.982Z,76.61
2022-12-04T07:36:24.992Z,76.34
2022-12-04T07:38:54.907Z,76.12
2022-12-04T07:41:21.838Z,76.28
2022-12-04T07:43:48.491Z,76.52
2022-12-04T07:46:20.025Z,76.49
2022-12-04T07:48:46.821Z,76.56
2022-12-04T07:51:15.158Z,76.55
2022-12-04T07:53:42.213Z,76.58
2022-12-04T07:56:11.381Z,76.86
2022-12-04T07:58:38.720Z,76.79
2022-12-04T08:01:07.694Z,76.59
2022-12-04T08:03:34.380Z,76.34
2022-12-04T08:06:01.616Z,76.51
2022-12-04T08:08:29.067Z,76.48
2022-12-04T08:10:55.747Z,76.89
2022-12-04T08:13:25.087Z,76.16
2022-12-04T08:15:51.910Z,76.93
2022-12-04T08:18:18.862Z,76.60
2022-12-04T08:20:45.481Z,76.41
2022-12-04T08:23:12.558Z,76.34
2022-12-04T08:25:39.707Z,76.35
2022-12-04T08:28:06.316Z,76.42
2022-12-04T08:30:35.449Z,76.65
2022-12-04T08:33:02.498Z,76.56
2022-12-04T08:35:29.711Z,76.44
2022-12-04T08:37:56.296Z,77.03
2022-12-04T08:40:23.369Z,76.63
2022-12-04T08:42:49.997Z,76.55
2022-12-04T08:45:16.795Z,76.82
2022-12-04T08:47:47.976Z,76.83
2022-12-04T08:50:18.944Z,76.82
2022-12-04T08:52:45.574Z,76.50
2022-12-04T08:55:12.231Z,76.88
2022-12-04T08:57:38.878Z,76.41
2022-12-04T09:00:06.895Z,76.98
2022-12-04T09:02:33.689Z,76.49
2022-12-04T09:05:01.771Z,76.78
2022-12-04T09:07:28.354Z,76.90
2022-12-04T09:09:56.824Z,76.92
2022-12-04T09:12:23.684Z,77.11
2022-12-04T09:14:50.257Z,77.13
2022-12-04T09:17:17.123Z,76.62
2022-12-04T09:19:43.723Z,76.98
2022-12-04T09:22:11.736Z,76.38
2022-12-04T09:24:38.405Z,76.81
2022-12-04T09:27:07.632Z,76.83
2022-12-04T09:29:37.896Z,76.96
2022-12-04T09:32:04.610Z,76.65
2022-12-04T09:34:31.236Z,76.74
2022-12-04T09:36:57.891Z,76.72
2022-12-04T09:39:25.850Z,76.77
2022-12-04T09:42:08.554Z,76.62
2022-12-04T09:44:39.524Z,76.69
2022-12-04T09:47:14.033Z,76.36
2022-12-04T09:49:45.829Z,76.56
2022-12-04T09:52:26.171Z,76.88
2022-12-04T09:54:55.559Z,76.99
2022-12-04T09:57:37.148Z,76.50
2022-12-04T10:00:05.446Z,76.48
2022-12-04T10:02:37.389Z,76.91
2022-12-04T10:05:04.971Z,76.82
2022-12-04T10:07:40.039Z,76.25
2022-12-04T10:10:17.169Z,76.55
2022-12-04T10:12:53.993Z,76.70
2022-12-04T10:15:29.638Z,76.22
2022-12-04T10:18:20.465Z,76.09
2022-12-04T10:21:01.032Z,76.15
2022-12-04T10:23:37.969Z,76.74
2022-12-04T10:26:13.606Z,76.09
2022-12-04T10:28:43.447Z,76.31
2022-12-04T10:31:14.183Z,76.03
2022-12-04T10:33:47.397Z,76.65
2022-12-04T10:36:17.319Z,76.18
2022-12-04T10:38:49.546Z,76.27
2022-12-04T10:41:25.273Z,76.30
2022-12-04T10:43:52.012Z,76.66
2022-12-04T10:46:23.645Z,76.32
2022-12-04T10:48:55.625Z,76.24
2022-12-04T10:51:23.891Z,76.10
2022-12-04T10:53:51.909Z,76.12
2022-12-04T10:56:22.147Z,76.15
2022-12-04T10:58:56.618Z,76.57
2022-12-04T11:01:23.755Z,75.98
2022-12-04T11:03:57.667Z,76.62
2022-12-04T11:06:26.313Z,76.06
2022-12-04T11:08:54.502Z,76.42
2022-12-04T11:11:27.156Z,76.18
2022-12-04T11:14:02.179Z,76.12
2022-12-04T11:16:35.402Z,76.45
2022-12-04T11:19:02.324Z,76.29
2022-12-04T11:21:30.718Z,76.10
2022-12-04T11:23:58.548Z,76.28
2022-12-04T11:26:33.501Z,76.21
2022-12-04T11:29:01.636Z,76.21
2022-12-04T11:31:30.647Z,76.16
2022-12-04T11:33:59.857Z,76.47
2022-12-04T11:36:30.276Z,76.22
2022-12-04T11:39:05.468Z,75.87
2022-12-04T11:41:33.995Z,75.97
2022-12-04T11:44:01.113Z,76.25
2022-12-04T11:46:29.624Z,76.08
2022-12-04T11:48:56.410Z,75.94
2022-12-04T11:51:32.823Z,76.29
2022-12-04T11:54:06.015Z,76.06
2022-12-04T11:56:36.771Z,76.45
2022-12-04T11:59:24.250Z,76.07
2022-12-04T12:02:02.714Z,76.42
2022-12-04T12:05:03.566Z,76.42
2022-12-04T12:07:43.282Z,75.84
2022-12-04T12:10:17.277Z,76.31
2022-12-04T12:12:57.335Z,76.42
2022-12-04T12:15:33.708Z,75.72
2022-12-04T12:18:21.016Z,76.35
2022-12-04T12:20:57.564Z,76.19
2022-12-04T12:23:39.403Z,75.86
2022-12-04T12:26:10.980Z,76.13
2022-12-04T12:28:54.902Z,75.84
2022-12-04T12:31:37.206Z,76.15
2022-12-04T12:34:11.639Z,76.41
2022-12-04T12:36:44.201Z,76.41
2022-12-04T12:39:15.695Z,76.08
2022-12-04T12:41:45.618Z,75.90
2022-12-04T12:44:18.490Z,76.00
2022-12-04T12:46:51.532Z,76.22
2022-12-04T12:49:24.951Z,76.47
2022-12-04T12:51:55.861Z,75.80
2022-12-04T12:54:31.349Z,76.08
2022-12-04T12:57:05.940Z,75.69
2022-12-04T12:59:34.793Z,75.97
2022-12-04T13:02:06.847Z,76.09
2022-12-04T13:04:38.463Z,76.34
2022-12-04T13:07:20.931Z,76.31
2022-12-04T13:09:53.089Z,76.41
2022-12-04T13:12:22.006Z,76.11
2022-12-04T13:14:49.971Z,75.80
2022-12-04T13:17:31.876Z,75.82
2022-12-04T13:20:06.808Z,76.05
2022-12-04T13:22:48.239Z,76.39
2022-12-04T13:25:36.547Z,76.20
2022-12-04T13:28:13.763Z,76.04
2022-12-04T13:30:48.550Z,76.00
2022-12-04T13:33:40.597Z,75.92
2022-12-04T13:36:31.145Z,76.29
2022-12-04T13:39:20.021Z,76.27
2022-12-04T13:41:47.032Z,76.30
2022-12-04T13:44:19.913Z,76.26
2022-12-04T13:46:54.456Z,76.43
2022-12-04T13:49:27.188Z,76.39
2022-12-04T13:51:55.453Z,76.31
2022-12-04T13:54:30.529Z,76.77
2022-12-04T13:57:16.900Z,76.27
2022-12-04T13:59:44.502Z,76.22
2022-12-04T14:02:28.930Z,76.14
2022-12-04T14:05:01.354Z,76.48
2022-12-04T14:07:31.560Z,76.09
2022-12-04T14:10:04.165Z,76.30
2022-12-04T14:12:34.124Z,76.27
2022-12-04T14:15:03.011Z,76.31
2022-12-04T14:17:33.612Z,76.24
2022-12-04T14:20:07.500Z,76.21
2022-12-04T14:22:43.525Z,76.25
2022-12-04T14:25:35.548Z,76.67
2022-12-04T14:28:24.834Z,76.29
2022-12-04T14:31:13.374Z,76.08
2022-12-04T14:33:45.570Z,76.32
2022-12-04T14:36:17.990Z,76.09
2022-12-04T14:38:45.826Z,76.15
2022-12-04T14:41:12.534Z,76.00
2022-12-04T14:43:40.995Z,75.97
2022-12-04T14:46:14.120Z,76.72
2022-12-04T14:48:53.190Z,76.71
2022-12-04T14:51:28.462Z,76.45
2022-12-04T14:54:04.283Z,76.23
2022-12-04T14:56:45.320Z,76.72
2022-12-04T14:59:17.894Z,76.33
2022-12-04T15:01:46.614Z,76.52
2022-12-04T15:04:23.206Z,76.74
2022-12-04T15:06:55.511Z,76.81
2022-12-04T15:09:45.424Z,76.39
2022-12-04T15:12:36.424Z,76.31
2022-12-04T15:15:12.811Z,76.54
2022-12-04T15:17:39.814Z,76.18
2022-12-04T15:20:15.863Z,76.70
2022-12-04T15:22:42.851Z,76.28
2022-12-04T15:25:18.748Z,76.31
2022-12-04T15:27:47.206Z,76.90
2022-12-04T15:30:17.640Z,76.81
2022-12-04T15:32:45.198Z,77.10
2022-12-04T15:35:19.508Z,76.82
2022-12-04T15:37:46.698Z,76.71
2022-12-04T15:40:20.649Z,76.83
2022-12-04T15:42:47.309Z,76.62
2022-12-04T15:45:28.730Z,76.77
2022-12-04T15:47:55.802Z,76.90
2022-12-04T15:50:28.842Z,76.65
2022-12-04T15:53:00.848Z,76.68
2022-12-04T15:55:31.317Z,77.12
2022-12-04T15:58:00.393Z,76.58
2022-12-04T16:00:30.885Z,76.51
2022-12-04T16:02:58.980Z,77.20
2022-12-04T16:05:34.981Z,76.98
2022-12-04T16:08:03.789Z,76.89
2022-12-04T16:10:33.177Z,76.82
2022-12-04T16:13:01.625Z,77.21
2022-12-04T16:15:37.433Z,77.05
2022-12-04T16:18:05.940Z,77.04
2022-12-04T16:20:37.422Z,76.98
2022-12-04T16:23:05.838Z,76.78
2022-12-04T16:25:32.772Z,77.11
2022-12-04T16:27:59.772Z,77.03
2022-12-04T16:30:27.083Z,76.93
2022-12-04T16:32:54.175Z,77.45
2022-12-04T16:35:21.598Z,77.29
2022-12-04T16:37:49.616Z,77.22
2022-12-04T16:40:16.411Z,76.82
2022-12-04T16:42:44.013Z,77.43
2022-12-04T16:45:21.607Z,77.13
2022-12-04T16:47:48.627Z,77.25
2022-12-04T16:50:15.351Z,77.35
2022-12-04T16:52:41.994Z,77.17
2022-12-04T16:55:17.276Z,76.83
2022-12-04T16:57:44.104Z,76.77
2022-12-04T17:00:13.345Z,76.92
2022-12-04T17:02:40.171Z,77.26
2022-12-04T17:05:07.525Z,76.79
2022-12-04T17:07:34.312Z,77.24
2022-12-04T17:10:00.961Z,76.78
2022-12-04T17:12:28.966Z,77.32
2022-12-04T17:14:55.822Z,76.98
2022-12-04T17:17:22.581Z,76.74
2022-12-04T17:19:49.177Z,76.93
2022-12-04T17:22:16.381Z,77.41
2022-12-04T17:24:50.309Z,77.27
2022-12-04T17:27:21.760Z,77.20
2022-12-04T17:29:49.999Z,77.20
2022-12-04T17:32:16.804Z,76.92
2022-12-04T17:34:43.409Z,76.85
2022-12-04T17:37:10.047Z,77.07
2022-12-04T17:39:36.858Z,77.38
2022-12-04T17:42:03.765Z,77.07
2022-12-04T17:44:30.753Z,76.97
2022-12-04T17:46:58.845Z,76.87
2022-12-04T17:49:25.814Z,77.06
2022-12-04T17:51:52.702Z,77.13
2022-12-04T17:54:19.298Z,77.31
2022-12-04T17:56:49.601Z,77.36
2022-12-04T17:59:17.874Z,77.41
2022-12-04T18:01:44.709Z,77.44
2022-12-04T18:04:13.106Z,77.45
2022-12-04T18:06:41.715Z,77.16
2022-12-04T18:09:10.298Z,77.02
2022-12-04T18:11:39.494Z,77.47
2022-12-04T18:14:12.258Z,76.88
2022-12-04T18:16:41.926Z,77.43
2022-12-04T18:19:08.657Z,77.54
2022-12-04T18:21:36.896Z,77.37
2022-12-04T18:24:05.152Z,77.28
2022-12-04T18:26:34.592Z,77.56
2022-12-04T18:29:01.192Z,77.51
2022-12-04T18:31:27.978Z,77.12
2022-12-04T18:33:54.699Z,77.27
2022-12-04T18:36:23.101Z,77.47
2022-12-04T18:38:55.809Z,77.38
2022-12-04T18:41:23.493Z,77.98
2022-12-04T18:43:50.811Z,77.56
2022-12-04T18:46:19.956Z,77.83
2022-12-04T18:48:48.314Z,77.88
2022-12-04T18:51:17.443Z,77.70
2022-12-04T18:53:44.481Z,78.12
2022-12-04T18:56:13.120Z,77.69
2022-12-04T18:58:39.828Z,77.52
2022-12-04T19:01:07.829Z,77.81
2022-12-04T19:03:35.089Z,77.88
2022-12-04T19:06:02.688Z,77.34
2022-12-04T19:08:34.194Z,77.63
2022-12-04T19:11:05.995Z,77.94
2022-12-04T19:13:34.675Z,77.86
2022-12-04T19:16:01.445Z,77.82
2022-12-04T19:18:29.798Z,77.73
2022-12-04T19:20:57.201Z,77.91
2022-12-04T19:23:24.509Z,78.44
2022-12-04T19:25:57.850Z,77.84
2022-12-04T19:28:25.837Z,78.34
2022-12-04T19:30:54.581Z,78.49
2022-12-04T19:33:21.669Z,78.42
2022-12-04T19:35:57.206Z,78.23
2022-12-04T19:38:23.901Z,78.40
2022-12-04T19:40:50.576Z,77.90
2022-12-04T19:43:17.152Z,78.37
2022-12-04T19:45:47.885Z,78.52
2022-12-04T19:48:15.929Z,78.05
2022-12-04T19:50:44.921Z,78.57
2022-12-04T19:53:11.638Z,78.18
2022-12-04T19:55:38.292Z,78.60
2022-12-04T19:58:04.915Z,78.60
2022-12-04T20:00:31.741Z,78.62
2022-12-04T20:02:58.400Z,78.54
2022-12-04T20:05:26.401Z,78.37
2022-12-04T20:07:53.125Z,78.44
2022-12-04T20:10:20.938Z,78.73
2022-12-04T20:12:47.669Z,78.59
2022-12-04T20:15:14.354Z,79.22
2022-12-04T20:17:40.950Z,78.86
2022-12-04T20:20:09.124Z,78.82
2022-12-04T20:22:37.686Z,78.70
2022-12-04T20:25:05.092Z,79.08
2022-12-04T20:27:31.776Z,78.75
2022-12-04T20:30:00.688Z,79.13
2022-12-04T20:32:27.352Z,79.13
2022-12-04T20:34:54.014Z,79.14
2022-12-04T20:37:20.809Z,79.23
2022-12-04T20:39:48.802Z,78.79
2022-12-04T20:42:15.851Z,79.03
2022-12-04T20:44:42.439Z,79.36
2022-12-04T20:47:09.088Z,79.04
2022-12-04T20:49:35.709Z,78.87
2022-12-04T20:52:03.124Z,78.84
2022-12-04T20:54:29.812Z,79.29
2022-12-04T20:56:57.898Z,79.14
2022-12-04T20:59:24.775Z,79.19
2022-12-04T21:01:52.097Z,78.84
2022-12-04T21:04:19.749Z,79.45
2022-12-04T21:06:46.978Z,78.99
2022-12-04T21:09:15.811Z,79.20
2022-12-04T21:11:44.623Z,78.97
2022-12-04T21:14:33.771Z,79.38
2022-12-04T21:17:04.019Z,79.02
2022-12-04T21:19:30.963Z,79.29
2022-12-04T21:21:57.925Z,79.10
2022-12-04T21:24:28.712Z,79.19
2022-12-04T21:26:56.125Z,79.18
2022-12-04T21:29:24.255Z,79.19
2022-12-04T21:31:51.131Z,79.18
2022-12-04T21:34:18.380Z,79.04
2022-12-04T21:36:46.462Z,78.96
2022-12-04T21:39:15.288Z,79.01
2022-12-04T21:42:00.873Z,79.01
2022-12-04T21:44:28.920Z,79.35
2022-12-04T21:46:55.744Z,79.31
2022-12-04T21:49:22.627Z,79.28
2022-12-04T21:51:57.403Z,79.60
2022-12-04T21:54:25.607Z,79.35
2022-12-04T21:56:52.253Z,79.35
2022-12-04T21:59:18.930Z,79.74
2022-12-04T22:01:46.936Z,79.32
2022-12-04T22:04:14.054Z,79.02
2022-12-04T22:06:40.745Z,79.55
2022-12-04T22:09:09.635Z,79.50
2022-12-04T22:11:38.111Z,79.63
2022-12-04T22:14:05.005Z,79.55
2022-12-04T22:16:34.602Z,79.44
2022-12-04T22:19:05.149Z,79.26
2022-12-04T22:21:32.518Z,79.20
2022-12-04T22:24:00.947Z,79.53
2022-12-04T22:26:29.403Z,79.29
2022-12-04T22:28:57.602Z,79.52
2022-12-04T22:31:26.386Z,79.26
2022-12-04T22:33:55.236Z,79.33
2022-12-04T22:36:25.332Z,79.51
2022-12-04T22:39:09.418Z,79.24
2022-12-04T22:41:37.303Z,79.35
2022-12-04T22:44:04.638Z,79.56
2022-12-04T22:46:31.478Z,79.35
2022-12-04T22:48:58.449Z,79.42
2022-12-04T22:51:27.400Z,79.49
2022-12-04T22:53:57.194Z,79.42
2022-12-04T22:56:25.458Z,79.68
2022-12-04T22:58:53.286Z,79.44
2022-12-04T23:01:22.065Z,79.12
2022-12-04T23:03:49.489Z,79.57
2022-12-04T23:06:18.017Z,79.46
2022-12-04T23:08:46.821Z,79.52
2022-12-04T23:11:15.991Z,79.35
2022-12-04T23:13:43.706Z,79.51
2022-12-04T23:16:12.400Z,79.49
2022-12-04T23:18:42.356Z,79.25
2022-12-04T23:21:10.853Z,79.29
2022-12-04T23:23:39.957Z,79.30
2022-12-04T23:26:10.356Z,79.40
2022-12-04T23:28:37.598Z,79.40
2022-12-04T23:31:05.127Z,79.52
2022-12-04T23:33:32.513Z,79.54
2022-12-04T23:36:01.477Z,79.54
2022-12-04T23:38:28.950Z,79.39
2022-12-04T23:41:00.953Z,79.52
2022-12-04T23:43:28.829Z,79.68
2022-12-04T23:45:55.875Z,79.36
2022-12-04T23:48:22.547Z,79.70
2022-12-04T23:50:49.160Z,79.36
2022-12-04T23:53:15.756Z,79.63
2022-12-04T23:55:42.412Z,79.36
2022-12-04T23:58:09.185Z,79.59
